Terminal Aerodrome Forecast
Issued by NWS

Home | Current Version | Previous Version | Graphics & Text | Print | Product List | Glossary On
Versions: 1 2 3 4 5 6 7 8 9 10 11 12 13 14 15 16 17 18 19 20 21 22 23 24 25 26 27
000
FTUS43 KTOP 170700 AAA
TAFMHK
TAF AMD
KMHK 170724Z 1707/1806 15004KT P6SM SCT050 BKN120
      TEMPO 1708/1709 BKN022
     FM170700 18004KT P6SM VCTS BKN015CB
     FM171100 18004KT 6SM BR BKN011
     FM171200 15004KT 3SM BR BKN008
     FM171500 16005KT 6SM BR BKN012
     FM171700 19005KT P6SM SCT015 BKN250=

USA.gov is the U.S. government's official web portal to all federal, state and local government web resources and services.